Time;durP1;ratioP1;P1;durP2;ratioP2;P2;SDS_P1;SDS_P2;PMS_P1;PMS_P2;Temp;Humidity;BMP_temperature;BMP_pressure;BME280_temperature;BME280_humidity;BME280_pressure;Samples;Min_cycle;Max_cycle;Signal;HPM_P1;HPM_P2
2023/09/21 00:01:18;;;;;;;8.73;3.03;;;;;;;22.54;47.47;100231.94;5395347;32;34813;-73
2023/09/21 00:04:22;;;;;;;6.60;3.20;;;;;;;22.07;49.16;100222.81;5395636;32;34687;-73
2023/09/21 00:07:25;;;;;;;5.72;2.80;;;;;;;22.54;47.83;100226.56;5393964;32;34625;-69
2023/09/21 00:10:27;;;;;;;6.00;3.00;;;;;;;22.85;47.12;100219.22;5401044;32;34930;-73
2023/09/21 00:13:31;;;;;;;;;;;;;;;22.11;49.49;100221.59;5392004;32;33954;-69
2023/09/21 00:16:33;;;;;;;8.98;3.03;;;;;;;22.14;50.25;100224.81;5398573;32;35569;-74
2023/09/21 00:19:36;;;;;;;7.97;3.12;;;;;;;22.35;49.74;100221.22;5395294;32;34304;-73
2023/09/21 00:22:38;;;;;;;7.55;2.83;;;;;;;22.00;50.67;100219.84;5389712;32;35521;-69
2023/09/21 00:25:41;;;;;;;9.18;3.17;;;;;;;21.27;52.63;100227.13;5399629;32;35396;-69
2023/09/21 00:28:43;;;;;;;9.18;3.03;;;;;;;21.19;53.35;100221.59;5379027;32;34190;-69
2023/09/21 00:31:47;;;;;;;9.40;3.10;;;;;;;21.75;52.03;100223.00;5401107;32;34552;-73
2023/09/21 00:34:51;;;;;;;8.05;3.08;;;;;;;21.27;53.17;100228.94;5394452;32;34093;-74
2023/09/21 00:37:53;;;;;;;8.32;2.75;;;;;;;20.98;54.61;100224.25;5398275;32;34668;-73
2023/09/21 00:40:57;;;;;;;8.98;3.12;;;;;;;21.27;53.84;100234.28;5393827;32;34053;-69
2023/09/21 00:44:09;;;;;;;10.00;3.15;;;;;;;21.24;54.30;100221.19;5394415;32;34079;-74
2023/09/21 00:47:13;;;;;;;7.32;2.80;;;;;;;21.10;54.86;100215.19;5402154;32;33989;-73
2023/09/21 00:50:19;;;;;;;6.22;2.80;;;;;;;21.25;54.53;100214.84;5393565;32;34766;-74
2023/09/21 00:53:22;;;;;;;8.43;2.75;;;;;;;21.17;54.98;100212.00;5398065;32;34714;-68
2023/09/21 00:56:27;;;;;;;7.00;2.78;;;;;;;20.73;56.36;100213.94;5397728;32;35036;-73
2023/09/21 00:59:35;;;;;;;5.37;2.60;;;;;;;21.62;53.82;100201.84;5394773;32;34469;-74
2023/09/21 01:02:40;;;;;;;6.93;3.10;;;;;;;21.55;54.10;100201.53;5408882;32;34419;-68
2023/09/21 01:05:44;;;;;;;8.25;2.83;;;;;;;20.73;56.76;100208.62;5398451;32;34048;-68
2023/09/21 01:08:48;;;;;;;6.35;2.87;;;;;;;20.49;57.56;100203.53;5403765;32;35190;-73
2023/09/21 01:11:51;;;;;;;7.25;2.60;;;;;;;20.37;58.41;100208.03;5391973;32;34646;-68
2023/09/21 01:15:04;;;;;;;7.30;2.70;;;;;;;20.94;56.85;100209.50;5408322;32;34844;-72
2023/09/21 01:18:08;;;;;;;5.25;2.33;;;;;;;20.62;57.32;100200.69;5392615;32;35300;-73
2023/09/21 01:21:13;;;;;;;5.65;2.70;;;;;;;20.24;58.55;100208.19;5394036;32;34238;-68
2023/09/21 01:24:16;;;;;;;7.00;2.90;;;;;;;20.39;58.13;100190.06;5393891;32;33973;-69
2023/09/21 01:27:20;;;;;;;;;;;;;;;20.12;59.18;100195.00;5392805;32;35191;-73
2023/09/21 01:30:27;;;;;;;6.62;2.50;;;;;;;20.24;58.75;100202.00;5401102;32;35506;-68
2023/09/21 01:33:29;;;;;;;10.45;2.65;;;;;;;20.43;57.93;100188.84;5396150;32;34165;-69
2023/09/21 01:36:32;;;;;;;6.75;2.55;;;;;;;20.59;57.60;100188.41;5392919;32;34829;-70
2023/09/21 01:39:34;;;;;;;7.18;2.50;;;;;;;20.02;59.41;100193.06;5395043;32;34813;-68
2023/09/21 01:42:37;;;;;;;10.30;3.05;;;;;;;20.28;58.81;100195.41;5394881;32;34447;-69
2023/09/21 01:45:42;;;;;;;8.90;3.15;;;;;;;20.12;59.53;100193.19;5396733;32;34948;-74
2023/09/21 01:48:45;;;;;;;8.85;2.85;;;;;;;20.13;59.28;100186.88;5393532;32;35600;-75
2023/09/21 01:51:51;;;;;;;8.63;2.70;;;;;;;19.47;61.65;100185.97;5397026;32;34110;-73
2023/09/21 01:54:54;;;;;;;18.60;4.18;;;;;;;19.68;61.27;100184.28;5396253;32;34246;-70
2023/09/21 01:57:57;;;;;;;8.90;2.87;;;;;;;19.97;60.42;100181.09;5397069;32;34865;-74
2023/09/21 02:01:00;;;;;;;;;;;;;;;19.69;61.41;100175.31;5397612;32;34340;-74
2023/09/21 02:04:03;;;;;;;6.50;2.50;;;;;;;20.06;60.30;100176.81;5395298;32;36075;-73
2023/09/21 02:07:05;;;;;;;13.65;4.18;;;;;;;20.13;59.73;100168.19;5398151;32;35660;-73
2023/09/21 02:10:11;;;;;;;6.97;3.25;;;;;;;19.69;61.36;100177.13;5396458;32;35370;-70
2023/09/21 02:13:13;;;;;;;8.18;2.83;;;;;;;19.74;61.23;100166.94;5397452;32;34478;-74
2023/09/21 02:16:16;;;;;;;8.43;2.72;;;;;;;19.89;60.74;100171.03;5382333;32;35056;-74
2023/09/21 02:19:18;;;;;;;6.53;2.70;;;;;;;20.46;58.74;100166.41;5397144;32;34738;-70
2023/09/21 02:22:21;;;;;;;7.70;2.55;;;;;;;20.81;57.32;100158.94;5395842;32;34216;-74
2023/09/21 02:25:24;;;;;;;9.05;3.22;;;;;;;19.57;60.72;100159.41;5399061;32;34150;-73
2023/09/21 02:28:26;;;;;;;10.07;2.97;;;;;;;19.42;61.49;100156.16;5400812;32;34637;-72
2023/09/21 02:31:29;;;;;;;7.55;2.45;;;;;;;19.92;59.79;100151.28;5396851;32;34235;-69
2023/09/21 02:34:33;;;;;;;11.55;3.58;;;;;;;20.60;57.86;100151.88;5402651;32;34449;-69
2023/09/21 02:37:37;;;;;;;6.62;3.00;;;;;;;19.81;59.79;100156.63;5396881;32;34388;-73
2023/09/21 02:40:42;;;;;;;11.90;3.15;;;;;;;19.49;61.27;100152.03;5386587;32;34089;-73
2023/09/21 02:43:45;;;;;;;9.10;3.45;;;;;;;19.38;61.91;100147.56;5403753;32;34232;-72
2023/09/21 02:46:47;;;;;;;8.98;3.30;;;;;;;19.96;59.99;100147.38;5401770;32;34468;-73
2023/09/21 02:49:51;;;;;;;6.57;3.45;;;;;;;19.99;59.83;100149.81;5402344;32;34173;-68
2023/09/21 02:52:57;;;;;;;6.90;2.92;;;;;;;20.70;57.75;100152.81;5397101;32;34684;-72
2023/09/21 02:56:01;;;;;;;4.90;2.67;;;;;;;19.61;62.21;100144.91;5414068;32;35287;-68
2023/09/21 02:59:05;;;;;;;7.30;3.20;;;;;;;19.70;63.13;100142.34;5400859;32;35311;-69
2023/09/21 03:02:09;;;;;;;7.62;3.28;;;;;;;20.45;60.33;100143.34;5395569;32;34238;-73
2023/09/21 03:05:13;;;;;;;10.60;3.80;;;;;;;19.44;64.25;100144.41;5401689;32;34515;-68
2023/09/21 03:08:16;;;;;;;10.80;3.30;;;;;;;19.39;64.91;100138.63;5394769;32;35088;-73
2023/09/21 03:11:19;;;;;;;7.68;3.00;;;;;;;19.70;63.76;100145.00;5399095;32;33906;-73
2023/09/21 03:14:21;;;;;;;8.65;3.17;;;;;;;19.69;64.23;100137.16;5404439;32;34757;-73
2023/09/21 03:17:24;;;;;;;5.68;2.92;;;;;;;20.64;60.89;100134.63;5400267;32;34189;-72
2023/09/21 03:20:34;;;;;;;9.00;3.00;;;;;;;20.20;62.43;100145.34;5403917;32;34624;-68
2023/09/21 03:23:37;;;;;;;5.50;2.78;;;;;;;19.50;64.10;100135.06;5399284;32;34401;-72
2023/09/21 03:26:39;;;;;;;9.68;3.03;;;;;;;18.80;67.90;100146.78;5399614;32;34624;-73
2023/09/21 03:29:42;;;;;;;9.90;3.30;;;;;;;19.03;67.00;100134.38;5389516;32;34811;-72
2023/09/21 03:32:44;;;;;;;6.12;3.05;;;;;;;18.73;68.20;100142.06;5398214;32;34491;-68
2023/09/21 03:35:47;;;;;;;7.78;3.10;;;;;;;19.67;65.01;100136.44;5395701;32;34353;-69
2023/09/21 03:38:49;;;;;;;;;;;;;;;19.07;66.92;100138.50;5393996;32;33203;-68
2023/09/21 03:41:56;;;;;;;5.97;2.67;;;;;;;20.12;62.78;100134.47;5401537;32;35580;-68
2023/09/21 03:44:59;;;;;;;20.25;4.50;;;;;;;19.45;65.20;100129.28;5397023;32;34612;-68
2023/09/21 03:48:04;;;;;;;7.95;3.05;;;;;;;19.04;67.15;100129.88;5399781;32;35266;-72
2023/09/21 03:51:07;;;;;;;6.57;2.95;;;;;;;18.88;67.87;100124.94;5392457;32;36489;-73
2023/09/21 03:54:09;;;;;;;8.35;3.10;;;;;;;18.96;67.69;100122.50;5400001;32;34573;-73
2023/09/21 03:57:14;;;;;;;7.40;3.08;;;;;;;19.11;67.28;100121.28;5394694;32;34813;-73
2023/09/21 04:00:21;;;;;;;10.93;2.97;;;;;;;19.16;66.33;100113.78;5396210;32;34183;-73
2023/09/21 04:03:26;;;;;;;9.45;3.45;;;;;;;19.71;64.31;100111.22;5398546;32;35253;-72
2023/09/21 04:06:40;;;;;;;8.00;3.00;;;;;;;19.04;66.87;100114.75;5396254;32;35839;-73
2023/09/21 04:09:51;;;;;;;7.45;3.00;;;;;;;20.06;62.77;100108.31;5388219;32;34044;-74
2023/09/21 04:13:00;;;;;;;;;;;;;;;18.99;66.48;100114.25;5376378;32;33490;-68
2023/09/21 04:16:05;;;;;;;6.95;3.10;;;;;;;18.94;67.07;100105.81;5394893;32;35294;-73
2023/09/21 04:19:10;;;;;;;8.65;2.92;;;;;;;19.40;65.73;100105.66;5399938;32;36072;-73
2023/09/21 04:22:12;;;;;;;8.75;2.78;;;;;;;20.40;61.74;100110.81;5395455;32;34617;-74
2023/09/21 04:25:16;;;;;;;9.00;2.95;;;;;;;20.64;60.52;100114.13;5401740;32;34197;-74
2023/09/21 04:28:19;;;;;;;6.90;3.10;;;;;;;19.69;63.16;100118.47;5394674;32;34454;-74
2023/09/21 04:31:21;;;;;;;6.37;3.22;;;;;;;19.55;64.25;100108.91;5395858;32;34181;-69
2023/09/21 04:34:24;;;;;;;10.43;3.30;;;;;;;19.53;64.32;100097.53;5394054;32;34284;-69
2023/09/21 04:37:26;;;;;;;10.23;4.40;;;;;;;19.84;63.33;100106.59;5394667;32;34546;-73
2023/09/21 04:40:29;;;;;;;8.77;3.50;;;;;;;20.50;60.71;100109.97;5403726;32;35009;-68
2023/09/21 04:43:32;;;;;;;10.05;3.67;;;;;;;19.38;63.82;100107.59;5392136;32;35003;-69
2023/09/21 04:46:36;;;;;;;9.95;3.58;;;;;;;19.11;64.70;100099.97;5399158;32;34685;-68
2023/09/21 04:49:39;;;;;;;5.50;2.97;;;;;;;19.34;64.34;100095.50;5396496;32;34910;-73
2023/09/21 04:52:43;;;;;;;13.05;3.83;;;;;;;19.29;64.01;100089.69;5389281;32;34840;-69
2023/09/21 04:55:46;;;;;;;11.25;3.25;;;;;;;19.99;62.40;100101.78;5399683;32;34290;-73
2023/09/21 04:58:50;;;;;;;7.40;3.25;;;;;;;20.86;59.04;100107.75;5394353;32;34301;-74
2023/09/21 05:01:53;;;;;;;11.98;3.47;;;;;;;20.15;61.11;100120.88;5398151;32;34794;-73
2023/09/21 05:04:55;;;;;;;;;;;;;;;19.88;61.78;100125.81;5399952;32;34817;-74
2023/09/21 05:07:58;;;;;;;5.62;2.87;;;;;;;19.61;62.96;100135.09;5399192;32;34955;-68
2023/09/21 05:11:00;;;;;;;11.05;2.80;;;;;;;19.69;62.58;100123.81;5403191;32;34015;-68
2023/09/21 05:14:02;;;;;;;;;;;;;;;19.77;62.44;100120.53;5399433;32;34190;-68
2023/09/21 05:17:05;;;;;;;8.25;2.97;;;;;;;19.69;62.52;100123.81;5402840;32;34287;-69
2023/09/21 05:20:11;;;;;;;10.20;3.45;;;;;;;20.46;61.30;100119.19;5397996;32;34971;-73
2023/09/21 05:23:14;;;;;;;11.82;3.80;;;;;;;19.89;63.37;100120.38;5401030;32;33978;-68
2023/09/21 05:26:17;;;;;;;6.90;3.70;;;;;;;20.33;64.03;100125.66;5394913;32;34970;-70
2023/09/21 05:29:23;;;;;;;7.75;2.97;;;;;;;20.47;62.75;100123.53;5399567;32;34798;-68
2023/09/21 05:32:26;;;;;;;7.57;3.33;;;;;;;20.09;64.89;100118.72;5395648;32;35149;-68
2023/09/21 05:35:29;;;;;;;10.87;3.57;;;;;;;19.81;65.87;100122.81;5398494;32;34136;-68
2023/09/21 05:38:37;;;;;;;8.43;3.50;;;;;;;20.36;64.12;100131.59;5392320;32;34137;-77
2023/09/21 05:41:41;;;;;;;8.25;3.50;;;;;;;19.10;69.70;100124.94;5395181;32;35423;-69
2023/09/21 05:44:44;;;;;;;8.80;3.45;;;;;;;19.40;66.97;100113.66;5398515;32;34104;-71
2023/09/21 05:47:46;;;;;;;;;;;;;;;19.90;65.62;100119.41;5395231;32;33974;-74
2023/09/21 05:50:49;;;;;;;13.88;4.15;;;;;;;19.95;65.75;100127.84;5395526;32;34466;-69
2023/09/21 05:53:52;;;;;;;9.77;3.70;;;;;;;20.00;66.63;100131.00;5391495;32;33805;-75
2023/09/21 05:56:55;;;;;;;13.07;3.87;;;;;;;20.89;63.08;100117.34;5397684;32;33750;-73
2023/09/21 05:59:58;;;;;;;10.48;3.67;;;;;;;20.64;63.10;100118.63;5394396;32;34565;-76
2023/09/21 06:03:00;;;;;;;7.50;3.80;;;;;;;20.38;63.76;100124.31;5389997;32;34261;-71
2023/09/21 06:06:06;;;;;;;10.30;3.90;;;;;;;20.06;65.52;100118.13;5392872;32;34597;-74
2023/09/21 06:09:10;;;;;;;10.88;3.80;;;;;;;19.95;65.74;100127.00;5388170;32;34489;-72
2023/09/21 06:12:12;;;;;;;16.52;3.40;;;;;;;20.31;64.17;100128.47;5394123;32;34592;-70
2023/09/21 06:15:15;;;;;;;10.07;3.62;;;;;;;21.15;60.40;100129.31;5392023;32;33933;-74
2023/09/21 06:18:17;;;;;;;10.80;4.20;;;;;;;21.27;60.74;100127.38;5395282;32;34880;-75
2023/09/21 06:21:19;;;;;;;;;;;;;;;20.28;63.82;100132.22;5396419;32;34627;-74
2023/09/21 06:24:24;;;;;;;11.73;4.00;;;;;;;19.57;65.60;100127.44;5393596;32;34518;-70
2023/09/21 06:27:30;;;;;;;9.68;4.35;;;;;;;20.36;63.24;100131.59;5322220;32;35682;-79
2023/09/21 06:30:33;;;;;;;15.52;4.87;;;;;;;20.24;64.18;100122.78;5361733;27;34225;-80
2023/09/21 06:33:36;;;;;;;13.95;4.90;;;;;;;20.26;63.54;100122.66;5395500;32;34539;-80
2023/09/21 06:36:39;;;;;;;15.20;4.68;;;;;;;20.12;64.40;100126.47;5381986;32;35796;-80
2023/09/21 06:39:42;;;;;;;9.32;4.22;;;;;;;19.83;65.65;100128.00;5375243;32;34095;-78
2023/09/21 06:42:44;;;;;;;12.80;4.53;;;;;;;20.68;62.19;100120.91;5377561;32;33525;-81
2023/09/21 06:45:47;;;;;;;16.60;4.05;;;;;;;21.00;60.70;100118.13;5379354;32;34847;-80
2023/09/21 06:48:49;;;;;;;12.25;3.83;;;;;;;20.47;61.66;100117.38;5369331;32;33854;-85
2023/09/21 06:51:54;;;;;;;10.07;4.65;;;;;;;20.19;61.22;100106.31;5366546;32;34402;-80
2023/09/21 06:55:00;;;;;;;8.25;3.60;;;;;;;19.74;63.48;100086.97;5380953;32;34208;-82
2023/09/21 06:58:08;;;;;;;11.00;4.45;;;;;;;20.75;59.61;100083.84;5379150;32;35435;-78
2023/09/21 07:01:11;;;;;;;10.32;4.00;;;;;;;20.41;60.78;100097.34;5375985;32;34644;-81
2023/09/21 07:04:13;;;;;;;10.02;3.62;;;;;;;21.07;58.72;100084.56;5381558;32;34003;-79
2023/09/21 07:07:16;;;;;;;13.88;3.70;;;;;;;21.99;55.66;100076.31;5364185;32;33719;-81
2023/09/21 07:10:18;;;;;;;;;;;;;;;22.96;52.15;100081.56;5372037;32;34853;-82
2023/09/21 07:13:24;;;;;;;8.60;3.15;;;;;;;24.15;49.07;100075.22;5383639;32;36222;-83
2023/09/21 07:16:30;;;;;;;12.48;4.07;;;;;;;24.25;48.53;100073.28;5374443;32;34204;-82
2023/09/21 07:19:34;;;;;;;7.70;3.42;;;;;;;25.51;44.97;100071.88;5379773;32;33855;-81
2023/09/21 07:22:37;;;;;;;8.13;4.22;;;;;;;24.32;47.37;100078.88;5376126;32;34158;-84
2023/09/21 07:25:41;;;;;;;10.07;3.58;;;;;;;24.69;47.03;100070.63;5395202;32;33901;-81
2023/09/21 07:28:45;;;;;;;8.32;3.80;;;;;;;23.48;49.54;100057.75;5422314;32;35417;-80
2023/09/21 07:31:48;;;;;;;17.90;3.55;;;;;;;24.93;46.90;100067.22;5404843;32;34462;-80
2023/09/21 07:34:51;;;;;;;18.55;4.72;;;;;;;27.18;41.43;100062.44;5407579;32;33814;-82
2023/09/21 07:37:53;;;;;;;7.90;3.55;;;;;;;25.64;44.85;100066.00;5420259;32;34087;-82
2023/09/21 07:40:56;;;;;;;10.05;4.00;;;;;;;24.49;47.33;100069.97;5423371;32;34317;-83
2023/09/21 07:43:59;;;;;;;9.60;3.62;;;;;;;27.60;40.67;100054.94;5422069;32;33839;-88
2023/09/21 07:47:07;;;;;;;9.30;3.40;;;;;;;28.17;39.20;100068.91;5424754;32;34047;-86
2023/09/21 07:50:12;;;;;;;35.28;20.30;;;;;;;26.77;42.12;100066.22;5423082;32;34643;-85
2023/09/21 07:53:19;;;;;;;10.20;3.58;;;;;;;26.20;43.39;100069.78;5415220;32;34497;-86
2023/09/21 07:56:22;;;;;;;9.35;3.97;;;;;;;25.46;45.12;100071.50;5424886;32;35801;-84
2023/09/21 07:59:27;;;;;;;11.65;3.60;;;;;;;25.38;45.25;100072.34;5421512;32;33694;-84
2023/09/21 08:02:29;;;;;;;13.88;4.00;;;;;;;26.20;43.44;100070.63;5424289;32;36608;-85
2023/09/21 08:05:33;;;;;;;12.70;4.60;;;;;;;25.18;45.74;100078.94;5423103;32;34024;-81
2023/09/21 08:08:35;;;;;;;11.95;4.25;;;;;;;24.91;46.84;100076.44;5424354;32;32909;-83
2023/09/21 08:11:38;;;;;;;9.43;4.03;;;;;;;24.54;48.19;100091.84;5422941;32;34297;-83
2023/09/21 08:14:40;;;;;;;5.95;2.85;;;;;;;24.17;49.30;100102.75;5405795;32;33873;-83
2023/09/21 08:17:46;;;;;;;6.53;3.10;;;;;;;25.18;47.09;100100.47;5425133;32;33917;-82
2023/09/21 08:20:48;;;;;;;7.85;3.05;;;;;;;24.56;48.85;100107.81;5424119;32;34015;-86
2023/09/21 08:23:51;;;;;;;9.82;3.83;;;;;;;24.76;48.91;100111.97;5410966;32;33056;-84
2023/09/21 08:26:54;;;;;;;12.02;3.97;;;;;;;23.57;54.06;100088.19;5424008;32;35232;-80
2023/09/21 08:29:57;;;;;;;;;;;;;;;22.66;58.87;100085.28;5423660;32;35225;-81
2023/09/21 08:33:00;;;;;;;6.20;3.03;;;;;;;22.83;59.07;100089.06;5425071;32;34060;-83
2023/09/21 08:36:03;;;;;;;;;;;;;;;22.93;56.56;100098.81;5411739;32;35025;-83
2023/09/21 08:39:06;;;;;;;9.38;3.15;;;;;;;23.52;54.98;100104.75;5411479;32;36191;-82
2023/09/21 08:42:09;;;;;;;6.57;3.40;;;;;;;22.63;57.30;100112.38;5408179;32;35314;-86
2023/09/21 08:45:12;;;;;;;8.05;3.37;;;;;;;22.19;58.92;100129.88;5429054;32;34109;-82
2023/09/21 08:48:23;;;;;;;7.10;3.03;;;;;;;22.57;57.16;100135.22;5409808;32;34347;-79
2023/09/21 08:51:26;;;;;;;7.35;2.78;;;;;;;23.00;55.60;100127.69;5417989;32;33971;-80
2023/09/21 08:54:29;;;;;;;11.20;4.50;;;;;;;22.25;57.01;100118.63;5424302;32;33879;-84
2023/09/21 08:57:31;;;;;;;5.45;2.78;;;;;;;21.21;65.18;100131.44;5411222;32;33852;-81
2023/09/21 09:00:34;;;;;;;;;;;;;;;22.06;59.07;100114.91;5411100;32;34287;-82
2023/09/21 09:03:37;;;;;;;6.87;3.60;;;;;;;21.77;60.55;100119.41;5427126;32;35038;-87
2023/09/21 09:06:40;;;;;;;11.25;3.78;;;;;;;21.36;63.19;100097.19;5406874;32;35184;-81
2023/09/21 09:09:43;;;;;;;11.18;3.80;;;;;;;21.59;65.37;100095.16;5406875;32;34362;-82
2023/09/21 09:12:46;;;;;;;7.75;3.58;;;;;;;22.77;59.32;100095.00;5405696;32;36622;-83
2023/09/21 09:15:48;;;;;;;10.25;3.90;;;;;;;23.05;57.36;100088.72;5423145;32;33868;-83
2023/09/21 09:18:52;;;;;;;11.12;4.15;;;;;;;22.35;60.29;100092.69;5426779;32;35531;-80
2023/09/21 09:21:55;;;;;;;15.52;4.20;;;;;;;22.11;62.47;100077.91;5420541;32;36254;-87
2023/09/21 09:25:06;;;;;;;12.40;4.70;;;;;;;21.79;64.67;100048.72;5426398;32;33829;-83
2023/09/21 09:28:09;;;;;;;19.92;8.38;;;;;;;22.38;64.69;100068.31;5415457;32;34149;-83
2023/09/21 09:31:11;;;;;;;;;;;;;;;22.22;63.28;100066.22;5429698;32;34169;-81
2023/09/21 09:34:22;;;;;;;9.38;4.70;;;;;;;22.29;64.32;100064.66;5409396;32;35229;-83
2023/09/21 09:37:26;;;;;;;10.05;4.18;;;;;;;21.88;65.20;100066.59;5425172;32;35216;-83
2023/09/21 09:40:30;;;;;;;12.48;4.85;;;;;;;22.77;61.60;100057.50;5413233;32;33943;-81
2023/09/21 09:43:39;;;;;;;9.13;4.12;;;;;;;22.61;62.49;100050.09;5425320;32;34424;-86
2023/09/21 09:46:45;;;;;;;7.78;3.90;;;;;;;22.84;60.78;100045.19;5418383;32;34094;-81
2023/09/21 09:49:49;;;;;;;16.62;8.00;;;;;;;23.33;57.27;100051.22;5426949;32;34311;-82
2023/09/21 09:53:00;;;;;;;9.48;3.80;;;;;;;23.45;57.88;100040.13;5428375;32;33776;-83
2023/09/21 09:56:09;;;;;;;7.50;4.07;;;;;;;23.30;58.45;100048.81;5427233;32;35636;-84
2023/09/21 09:59:17;;;;;;;7.00;4.00;;;;;;;23.86;59.27;100050.47;5430648;32;35191;-85
2023/09/21 10:02:20;;;;;;;7.00;3.70;;;;;;;23.85;56.77;100056.81;5407642;32;32755;-85
2023/09/21 10:05:25;;;;;;;10.05;3.92;;;;;;;24.43;55.03;100046.44;5416015;32;33949;-82
2023/09/21 10:08:27;;;;;;;8.30;3.42;;;;;;;24.46;55.11;100040.72;5421156;32;34091;-79
2023/09/21 10:11:30;;;;;;;8.20;3.40;;;;;;;25.03;51.51;100032.97;5418723;32;34166;-84
2023/09/21 10:14:36;;;;;;;8.13;3.45;;;;;;;24.07;54.65;100047.44;5432157;32;35199;-87
2023/09/21 10:17:39;;;;;;;9.73;3.70;;;;;;;25.27;50.44;100026.06;5431972;32;34098;-90
2023/09/21 10:20:42;;;;;;;13.20;3.78;;;;;;;24.71;51.29;100028.28;5420290;32;35189;-87
2023/09/21 10:24:13;;;;;;;7.87;3.50;;;;;;;25.37;49.21;100040.19;5418009;32;34775;-80
2023/09/21 10:27:20;;;;;;;12.27;5.12;;;;;;;25.88;48.20;100028.38;5374233;32;34124;-82
2023/09/21 10:30:24;;;;;;;11.55;4.05;;;;;;;25.81;48.99;100010.37;5384455;32;34225;-87
2023/09/21 10:33:28;;;;;;;6.28;3.08;;;;;;;26.49;46.33;100006.50;5382468;32;34138;-84
2023/09/21 10:36:31;;;;;;;10.43;3.10;;;;;;;26.87;44.81;99999.47;5379221;32;34007;-85
2023/09/21 10:39:36;;;;;;;5.55;2.60;;;;;;;27.25;43.57;100004.06;5379990;32;34358;-82
2023/09/21 10:42:39;;;;;;;11.70;3.22;;;;;;;26.84;43.37;100002.50;5381334;32;34732;-82
2023/09/21 10:45:58;;;;;;;6.70;2.87;;;;;;;27.08;44.42;99997.06;5380310;32;34507;-83
2023/09/21 10:49:08;;;;;;;8.40;3.00;;;;;;;27.88;42.33;99998.59;5366573;32;33950;-87
2023/09/21 10:52:11;;;;;;;13.73;3.28;;;;;;;27.22;42.72;99993.59;5379978;32;35250;-89
2023/09/21 10:55:19;;;;;;;7.10;3.20;;;;;;;27.44;43.20;99981.19;5368991;32;34085;-85
2023/09/21 10:58:24;;;;;;;8.25;3.30;;;;;;;26.08;45.96;99979.56;5367961;32;33725;-89
2023/09/21 11:01:27;;;;;;;5.85;2.85;;;;;;;27.20;43.95;99975.91;5395870;32;35098;-87
2023/09/21 11:04:29;;;;;;;9.95;3.20;;;;;;;27.53;43.46;99972.00;5393895;32;34962;-86
2023/09/21 11:07:32;;;;;;;8.27;3.50;;;;;;;26.70;43.99;99964.47;5389898;32;35799;-83
2023/09/21 11:10:35;;;;;;;8.18;3.15;;;;;;;27.12;42.74;99957.09;5388624;32;33811;-89
2023/09/21 11:13:40;;;;;;;7.43;3.40;;;;;;;26.90;43.39;99956.81;5375820;32;34148;-88
2023/09/21 11:16:43;;;;;;;8.05;3.20;;;;;;;26.97;43.19;99933.50;5379466;32;34160;-87
2023/09/21 11:19:49;;;;;;;10.32;3.45;;;;;;;27.29;42.33;99931.69;5391574;32;35576;-84
2023/09/21 11:22:55;;;;;;;9.38;3.58;;;;;;;27.37;42.16;99928.94;5378523;32;33958;-87
2023/09/21 11:26:00;;;;;;;9.20;3.72;;;;;;;27.93;40.70;99913.31;5384153;32;35273;-89
2023/09/21 11:29:06;;;;;;;12.65;3.47;;;;;;;27.29;43.07;99928.12;5393143;32;34058;-90
2023/09/21 11:32:17;;;;;;;8.88;3.30;;;;;;;27.16;43.17;99913.38;5358178;32;36159;-90
2023/09/21 11:35:24;;;;;;;11.25;3.72;;;;;;;27.62;42.00;99917.94;5390243;32;34727;-91
2023/09/21 11:38:33;;;;;;;13.25;3.35;;;;;;;27.68;41.47;99909.97;5396902;32;34501;-88
2023/09/21 11:41:37;;;;;;;8.38;3.30;;;;;;;27.45;42.43;99904.59;5390748;32;33941;-87
2023/09/21 11:44:42;;;;;;;9.38;3.70;;;;;;;28.34;39.89;99883.19;5395892;32;34018;-86
2023/09/21 11:47:58;;;;;;;11.32;3.83;;;;;;;27.17;43.30;99890.78;5394644;32;34565;-88
2023/09/21 11:51:05;;;;;;;9.13;3.53;;;;;;;27.44;42.22;99875.94;5380213;32;35313;-88
2023/09/21 11:54:08;;;;;;;5.87;3.28;;;;;;;27.75;41.59;99869.59;5399506;32;35043;-91
2023/09/21 11:57:14;;;;;;;8.18;3.25;;;;;;;28.59;39.07;99854.81;5361124;32;35827;-92
2023/09/21 12:00:27;;;;;;;8.95;3.40;;;;;;;28.77;39.06;99862.50;5379149;32;33840;-83
2023/09/21 12:03:33;;;;;;;8.65;3.20;;;;;;;29.07;37.89;99852.47;5377596;32;34059;-85
2023/09/21 12:06:37;;;;;;;9.95;3.55;;;;;;;29.00;38.60;99848.03;5393895;32;34660;-84
2023/09/21 12:09:46;;;;;;;10.48;4.00;;;;;;;28.68;38.87;99839.34;5395171;32;33976;-87
2023/09/21 12:12:51;;;;;;;8.32;3.53;;;;;;;29.43;38.08;99829.91;5390709;32;33383;-84
2023/09/21 12:15:56;;;;;;;6.87;3.42;;;;;;;29.00;37.92;99821.81;5377809;32;35106;-82
2023/09/21 12:19:02;;;;;;;7.65;3.30;;;;;;;30.12;35.85;99835.44;5389982;32;33715;-88
2023/09/21 12:22:08;;;;;;;9.02;3.35;;;;;;;29.63;36.71;99827.41;5361320;32;32881;-86
2023/09/21 12:25:14;;;;;;;6.82;3.85;;;;;;;29.13;37.78;99835.47;5384567;32;33355;-84
2023/09/21 12:28:20;;;;;;;8.77;3.72;;;;;;;28.53;38.96;99796.13;5373750;32;33720;-88
2023/09/21 12:31:25;;;;;;;9.20;3.85;;;;;;;28.74;38.69;99808.84;5381276;32;35682;-83
2023/09/21 12:34:46;;;;;;;7.62;3.53;;;;;;;28.54;38.93;99795.09;5379408;32;34055;-84
2023/09/21 12:37:50;;;;;;;7.50;3.50;;;;;;;28.42;39.46;99812.81;5388227;32;33885;-86
2023/09/21 12:40:56;;;;;;;8.23;3.55;;;;;;;28.34;39.73;99802.13;5385556;32;35339;-84
2023/09/21 12:44:00;;;;;;;9.50;3.83;;;;;;;28.10;40.52;99786.19;5376965;32;35457;-86
2023/09/21 12:47:05;;;;;;;12.40;3.72;;;;;;;28.47;39.99;99790.66;5374748;32;35110;-82
2023/09/21 12:50:10;;;;;;;8.63;3.83;;;;;;;28.83;39.19;99774.38;5386770;32;33654;-85
2023/09/21 12:53:13;;;;;;;8.23;3.72;;;;;;;28.92;39.13;99789.50;5357338;32;34174;-81
2023/09/21 12:56:16;;;;;;;8.35;3.67;;;;;;;30.09;36.93;99784.34;5389744;32;33952;-80
2023/09/21 12:59:19;;;;;;;14.75;4.20;;;;;;;31.50;34.55;99779.09;5396780;32;33959;-85
2023/09/21 13:02:27;;;;;;;8.55;4.03;;;;;;;31.93;33.55;99778.59;5392262;32;34531;-86
2023/09/21 13:05:34;;;;;;;10.45;4.30;;;;;;;31.43;34.61;99772.78;5398436;32;35236;-88
2023/09/21 13:08:37;;;;;;;9.15;3.90;;;;;;;31.11;35.17;99756.31;5391106;32;35367;-84
2023/09/21 13:11:40;;;;;;;9.45;4.40;;;;;;;31.47;34.48;99760.47;5376242;32;33945;-85
2023/09/21 13:14:44;;;;;;;8.52;3.95;;;;;;;33.86;30.61;99755.34;5378193;32;34593;-88
2023/09/21 13:18:06;;;;;;;8.57;3.65;;;;;;;34.77;29.35;99748.09;5387921;32;33234;-86
2023/09/21 13:21:15;;;;;;;10.15;3.92;;;;;;;33.53;31.00;99743.97;5357240;32;35777;-87
2023/09/21 13:24:19;;;;;;;9.77;4.20;;;;;;;32.34;33.07;99735.59;5397690;32;33600;-81
2023/09/21 13:27:22;;;;;;;10.57;4.32;;;;;;;31.25;34.91;99747.16;5388478;32;31667;-85
2023/09/21 13:30:25;;;;;;;8.75;4.55;;;;;;;30.16;37.11;99739.19;5394067;32;34449;-84
2023/09/21 13:33:28;;;;;;;9.73;4.05;;;;;;;30.54;36.40;99733.25;5363904;32;34032;-80
2023/09/21 13:36:31;;;;;;;8.20;4.00;;;;;;;30.17;37.26;99746.25;5384115;32;34140;-86
2023/09/21 13:39:34;;;;;;;12.95;4.70;;;;;;;29.87;37.69;99734.00;5394673;32;33924;-82
2023/09/21 13:42:36;;;;;;;12.40;4.28;;;;;;;29.18;39.30;99731.25;5397577;32;34006;-83
2023/09/21 13:45:41;;;;;;;12.10;4.30;;;;;;;29.13;38.91;99729.97;5398128;32;34190;-77
2023/09/21 13:48:53;;;;;;;8.20;4.15;;;;;;;28.99;39.35;99728.19;5382322;32;32627;-82
2023/09/21 13:52:39;;;;;;;8.43;3.80;;;;;;;29.07;39.10;99725.31;5406609;32;35386;-84
2023/09/21 13:56:03;;;;;;;10.07;3.92;;;;;;;28.52;40.65;99734.13;5400158;32;35573;-86
2023/09/21 13:59:08;;;;;;;10.93;4.10;;;;;;;28.75;39.73;99720.44;5363792;32;32932;-85
2023/09/21 14:02:14;;;;;;;10.23;3.90;;;;;;;28.55;40.06;99718.37;5400604;32;35747;-84
2023/09/21 14:05:21;;;;;;;9.93;3.90;;;;;;;28.70;39.78;99703.94;5425357;32;33831;-87
2023/09/21 14:08:25;;;;;;;8.95;3.70;;;;;;;28.68;39.99;99700.62;5416204;32;34182;-90
2023/09/21 14:11:29;;;;;;;11.23;3.60;;;;;;;28.54;40.31;99703.19;5409665;32;34123;-80
2023/09/21 14:14:31;;;;;;;7.95;3.65;;;;;;;28.78;39.64;99693.00;5429425;32;35644;-82
2023/09/21 14:17:35;;;;;;;10.98;4.00;;;;;;;28.71;40.05;99689.41;5414860;32;35112;-83
2023/09/21 14:20:38;;;;;;;11.85;4.25;;;;;;;28.88;39.64;99688.94;5409236;32;34497;-86